createdAt,value
2018-09-01T00:00:59.898Z,995.82
2018-09-01T00:01:59.821Z,995.87
2018-09-01T00:02:59.745Z,995.93
2018-09-01T00:03:59.669Z,995.91
2018-09-01T00:04:59.593Z,995.96
2018-09-01T00:05:59.517Z,995.96
2018-09-01T00:06:59.440Z,995.97
2018-09-01T00:07:59.365Z,995.99
2018-09-01T00:08:59.289Z,995.97
2018-09-01T00:09:59.218Z,996.02
2018-09-01T00:10:59.138Z,996.01
2018-09-01T00:11:59.061Z,996.01
2018-09-01T00:12:58.987Z,995.98
2018-09-01T00:13:58.909Z,995.96
2018-09-01T00:14:58.834Z,995.94
2018-09-01T00:15:58.757Z,995.96
2018-09-01T00:16:58.681Z,995.95
2018-09-01T00:17:58.606Z,995.93
2018-09-01T00:18:58.538Z,995.89
2018-09-01T00:19:58.454Z,995.93
2018-09-01T00:20:58.378Z,995.91
2018-09-01T00:21:58.301Z,995.94
2018-09-01T00:22:58.225Z,995.91
2018-09-01T00:23:58.149Z,995.97
2018-09-01T00:24:58.078Z,995.97
2018-09-01T00:25:57.996Z,995.97
2018-09-01T00:26:57.921Z,995.98
2018-09-01T00:27:57.845Z,995.97
2018-09-01T00:28:57.768Z,995.96
2018-09-01T00:29:57.693Z,995.96
2018-09-01T00:30:57.618Z,995.97
2018-09-01T00:31:57.540Z,995.96
2018-09-01T00:32:57.462Z,995.93
2018-09-01T00:33:57.388Z,995.91
2018-09-01T00:34:57.316Z,995.89
2018-09-01T00:35:57.235Z,995.90
2018-09-01T00:36:57.159Z,995.90
2018-09-01T00:37:57.083Z,995.88
2018-09-01T00:38:57.007Z,995.89
2018-09-01T00:39:56.929Z,995.87
2018-09-01T00:40:56.853Z,995.85
2018-09-01T00:41:56.777Z,995.84
2018-09-01T00:42:56.701Z,995.84
2018-09-01T00:43:56.627Z,995.86
2018-09-01T00:44:56.547Z,995.83
2018-09-01T00:45:56.472Z,995.85
2018-09-01T00:46:56.396Z,995.88
2018-09-01T00:47:56.319Z,995.88
2018-09-01T00:48:56.243Z,995.89
2018-09-01T00:49:56.167Z,995.85
2018-09-01T00:50:56.092Z,995.89
2018-09-01T00:51:56.014Z,995.89
2018-09-01T00:52:55.939Z,995.88
2018-09-01T00:53:55.862Z,995.85
2018-09-01T00:54:55.786Z,995.87
2018-09-01T00:55:55.710Z,995.81
2018-09-01T00:56:55.633Z,995.83
2018-09-01T00:57:55.562Z,995.79
2018-09-01T00:58:55.481Z,995.78
2018-09-01T00:59:55.403Z,995.74
2018-09-01T01:00:55.327Z,995.74
2018-09-01T01:01:55.251Z,995.73
2018-09-01T01:02:55.174Z,995.73
2018-09-01T01:03:55.097Z,995.77
2018-09-01T01:04:55.020Z,995.76
2018-09-01T01:05:54.945Z,995.79
2018-09-01T01:06:54.870Z,995.80
2018-09-01T01:07:54.792Z,995.86
2018-09-01T01:08:54.716Z,995.83
2018-09-01T01:09:54.641Z,995.86
2018-09-01T01:10:54.565Z,995.83
2018-09-01T01:11:54.488Z,995.84
2018-09-01T01:12:54.410Z,995.84
2018-09-01T01:13:54.334Z,995.86
2018-09-01T01:14:54.260Z,995.85
2018-09-01T01:15:54.181Z,995.79
2018-09-01T01:16:54.105Z,995.83
2018-09-01T01:17:54.028Z,995.82
2018-09-01T01:18:53.953Z,995.81
2018-09-01T01:19:53.875Z,995.81
2018-09-01T01:20:53.799Z,995.80
2018-09-01T01:21:53.724Z,995.81
2018-09-01T01:22:53.647Z,995.77
2018-09-01T01:23:53.569Z,995.77
2018-09-01T01:24:53.493Z,995.77
2018-09-01T01:25:53.417Z,995.82
2018-09-01T01:26:53.339Z,995.83
2018-09-01T01:27:53.261Z,995.87
2018-09-01T01:28:53.187Z,995.83
2018-09-01T01:29:53.110Z,995.86
2018-09-01T01:30:53.035Z,995.85
2018-09-01T01:31:52.956Z,995.89
2018-09-01T01:32:52.880Z,995.89
2018-09-01T01:33:52.804Z,995.86
2018-09-01T01:34:52.727Z,995.82
2018-09-01T01:35:52.649Z,995.82
2018-09-01T01:36:52.577Z,995.82
2018-09-01T01:37:52.501Z,995.85
2018-09-01T01:38:52.420Z,995.87
2018-09-01T01:39:52.343Z,995.86
2018-09-01T01:40:52.266Z,995.89
2018-09-01T01:41:52.191Z,995.95
2018-09-01T01:42:52.115Z,995.94
2018-09-01T01:43:52.036Z,995.91
2018-09-01T01:44:51.962Z,995.94
2018-09-01T01:45:51.883Z,995.95
2018-09-01T01:46:51.807Z,995.99
2018-09-01T01:47:51.730Z,996.00
2018-09-01T01:48:51.653Z,996.00
2018-09-01T01:49:51.578Z,996.08
2018-09-01T01:50:51.499Z,996.08
2018-09-01T01:51:51.421Z,996.12
2018-09-01T01:52:51.346Z,996.14
2018-09-01T01:53:51.268Z,996.13
2018-09-01T01:54:51.192Z,996.09
2018-09-01T01:55:51.114Z,996.11
2018-09-01T01:56:51.038Z,996.07
2018-09-01T01:57:50.966Z,996.08
2018-09-01T01:58:50.885Z,996.09
2018-09-01T01:59:50.807Z,996.07
2018-09-01T02:00:50.730Z,996.09
2018-09-01T02:01:50.657Z,996.10
2018-09-01T02:02:50.577Z,996.12
2018-09-01T02:03:50.499Z,996.14
2018-09-01T02:04:50.424Z,996.13
2018-09-01T02:05:50.347Z,996.13
2018-09-01T02:06:50.269Z,996.10
2018-09-01T02:07:50.192Z,996.12
2018-09-01T02:08:50.114Z,996.13
2018-09-01T02:09:50.039Z,996.07
2018-09-01T02:10:49.961Z,996.13
2018-09-01T02:11:49.883Z,996.12
2018-09-01T02:12:49.806Z,996.12
2018-09-01T02:13:49.731Z,996.10
2018-09-01T02:14:49.656Z,996.09
2018-09-01T02:15:49.576Z,996.07
2018-09-01T02:16:49.497Z,996.06
2018-09-01T02:17:49.422Z,996.04
2018-09-01T02:18:49.345Z,996.01
2018-09-01T02:19:49.267Z,996.05
2018-09-01T02:20:49.191Z,996.01
2018-09-01T02:21:49.113Z,996.02
2018-09-01T02:22:49.039Z,996.03
2018-09-01T02:23:48.960Z,996.07
2018-09-01T02:24:48.883Z,996.06
2018-09-01T02:25:48.808Z,996.11
2018-09-01T02:26:48.729Z,996.13
2018-09-01T02:27:48.653Z,996.15
2018-09-01T02:28:48.575Z,996.15
2018-09-01T02:29:48.498Z,996.15
2018-09-01T02:30:48.422Z,996.16
2018-09-01T02:31:48.345Z,996.14
2018-09-01T02:32:48.268Z,996.15
2018-09-01T02:33:48.190Z,996.14
2018-09-01T02:34:48.113Z,996.18
2018-09-01T02:35:48.036Z,996.19
2018-09-01T02:36:47.960Z,996.21
2018-09-01T02:37:47.882Z,996.24
2018-09-01T02:38:47.805Z,996.25
2018-09-01T02:39:47.728Z,996.28
2018-09-01T02:40:47.651Z,996.30
2018-09-01T02:41:47.574Z,996.29
2018-09-01T02:42:47.499Z,996.32
2018-09-01T02:43:47.425Z,996.32
2018-09-01T02:44:47.343Z,996.35
2018-09-01T02:45:47.266Z,996.38
2018-09-01T02:46:47.189Z,996.35
2018-09-01T02:47:47.115Z,996.32
2018-09-01T02:48:47.036Z,996.36
2018-09-01T02:49:46.959Z,996.38
2018-09-01T02:50:46.883Z,996.34
2018-09-01T02:51:46.803Z,996.36
2018-09-01T02:52:46.732Z,996.37
2018-09-01T02:53:46.649Z,996.38
2018-09-01T02:54:46.572Z,996.39
2018-09-01T02:55:46.495Z,996.33
2018-09-01T02:56:46.419Z,996.35
2018-09-01T02:57:46.342Z,996.35
2018-09-01T02:58:46.265Z,996.37
2018-09-01T02:59:46.186Z,996.36
2018-09-01T03:00:46.111Z,996.35
2018-09-01T03:01:46.033Z,996.35
2018-09-01T03:02:45.956Z,996.38
2018-09-01T03:03:45.880Z,996.34
2018-09-01T03:04:45.805Z,996.38
2018-09-01T03:05:45.727Z,996.38
2018-09-01T03:06:45.649Z,996.39
2018-09-01T03:07:45.572Z,996.38
2018-09-01T03:08:45.494Z,996.38
2018-09-01T03:09:45.418Z,996.34
2018-09-01T03:10:45.342Z,996.37
2018-09-01T03:11:45.267Z,996.36
2018-09-01T03:12:45.187Z,996.39
2018-09-01T03:13:45.109Z,996.40
2018-09-01T03:14:45.033Z,996.42
2018-09-01T03:15:44.955Z,996.43
2018-09-01T03:16:44.879Z,996.45
2018-09-01T03:17:44.801Z,996.44
2018-09-01T03:18:44.725Z,996.46
2018-09-01T03:19:44.647Z,996.44
2018-09-01T03:20:44.570Z,996.43
2018-09-01T03:21:44.493Z,996.39
2018-09-01T03:22:44.415Z,996.39
2018-09-01T03:23:44.339Z,996.36
2018-09-01T03:24:44.263Z,996.40
2018-09-01T03:25:44.190Z,996.39
2018-09-01T03:26:44.108Z,996.39
2018-09-01T03:27:44.031Z,996.38
2018-09-01T03:28:43.954Z,996.37
2018-09-01T03:29:43.877Z,996.36
2018-09-01T03:30:43.800Z,996.33
2018-09-01T03:31:43.723Z,996.33
2018-09-01T03:32:43.645Z,996.31
2018-09-01T03:33:43.568Z,996.28
2018-09-01T03:34:43.491Z,996.28
2018-09-01T03:35:43.413Z,996.27
2018-09-01T03:36:43.336Z,996.27
2018-09-01T03:37:43.259Z,996.29
2018-09-01T03:38:43.183Z,996.29
2018-09-01T03:39:43.103Z,996.30
2018-09-01T03:40:43.030Z,996.31
2018-09-01T03:41:42.952Z,996.30
2018-09-01T03:42:42.874Z,996.31
2018-09-01T03:43:42.797Z,996.28
2018-09-01T03:44:42.721Z,996.30
2018-09-01T03:45:42.647Z,996.34
2018-09-01T03:46:42.572Z,996.35
2018-09-01T03:47:42.488Z,996.38
2018-09-01T03:48:42.409Z,996.37
2018-09-01T03:49:42.333Z,996.45
2018-09-01T03:50:42.258Z,996.42
2018-09-01T03:51:42.179Z,996.42
2018-09-01T03:52:42.100Z,996.40
2018-09-01T03:53:42.024Z,996.41
2018-09-01T03:54:41.948Z,996.43
2018-09-01T03:55:41.869Z,996.42
2018-09-01T03:56:41.792Z,996.45
2018-09-01T03:57:41.715Z,996.43
2018-09-01T03:58:41.638Z,996.45
2018-09-01T03:59:41.560Z,996.49
2018-09-01T04:00:41.482Z,996.50
2018-09-01T04:01:41.408Z,996.52
2018-09-01T04:02:41.328Z,996.49
2018-09-01T04:03:41.249Z,996.49
2018-09-01T04:04:41.173Z,996.51
2018-09-01T04:05:41.096Z,996.56
2018-09-01T04:06:41.019Z,996.56
2018-09-01T04:07:40.940Z,996.60
2018-09-01T04:08:40.862Z,996.61
2018-09-01T04:09:40.787Z,996.62
2018-09-01T04:10:40.709Z,996.64
2018-09-01T04:11:40.630Z,996.62
2018-09-01T04:12:40.553Z,996.65
2018-09-01T04:13:40.474Z,996.61
2018-09-01T04:14:40.401Z,996.62
2018-09-01T04:15:40.318Z,996.55
2018-09-01T04:16:40.244Z,996.58
2018-09-01T04:17:40.168Z,996.53
2018-09-01T04:18:40.088Z,996.57
2018-09-01T04:19:40.008Z,996.52
2018-09-01T04:20:39.931Z,996.58
2018-09-01T04:21:39.853Z,996.58
2018-09-01T04:22:39.775Z,996.57
2018-09-01T04:23:39.698Z,996.57
2018-09-01T04:24:39.620Z,996.61
2018-09-01T04:25:39.543Z,996.62
2018-09-01T04:26:39.464Z,996.63
2018-09-01T04:27:39.386Z,996.66
2018-09-01T04:28:39.309Z,996.65
2018-09-01T04:29:39.232Z,996.68
2018-09-01T04:30:39.153Z,996.67
2018-09-01T04:31:39.075Z,996.69
2018-09-01T04:32:38.997Z,996.67
2018-09-01T04:33:38.922Z,996.67
2018-09-01T04:34:38.842Z,996.67
2018-09-01T04:35:38.819Z,996.68
2018-09-01T04:36:38.687Z,996.70
2018-09-01T04:37:38.609Z,996.73
2018-09-01T04:38:38.532Z,996.71
2018-09-01T04:39:38.454Z,996.71
2018-09-01T04:40:38.375Z,996.75
2018-09-01T04:41:38.297Z,996.76
2018-09-01T04:42:38.220Z,996.76
2018-09-01T04:43:38.141Z,996.77
2018-09-01T04:44:38.064Z,996.79
2018-09-01T04:45:37.993Z,996.79
2018-09-01T04:46:37.909Z,996.81
2018-09-01T04:47:37.831Z,996.83
2018-09-01T04:48:37.753Z,996.80
2018-09-01T04:49:37.676Z,996.83
2018-09-01T04:50:37.847Z,996.85
2018-09-01T04:51:37.520Z,996.83
2018-09-01T04:52:37.441Z,996.83
2018-09-01T04:53:37.364Z,996.81
2018-09-01T04:54:37.286Z,996.81
2018-09-01T04:55:37.207Z,996.78
2018-09-01T04:56:37.131Z,996.81
2018-09-01T04:57:37.053Z,996.82
2018-09-01T04:58:36.976Z,996.82
2018-09-01T04:59:36.897Z,996.83
2018-09-01T05:00:36.822Z,996.82
2018-09-01T05:01:36.740Z,996.84
2018-09-01T05:02:36.664Z,996.83
2018-09-01T05:03:36.585Z,996.84
2018-09-01T05:04:36.507Z,996.83
2018-09-01T05:05:36.429Z,996.83
2018-09-01T05:06:36.352Z,996.85
2018-09-01T05:07:36.275Z,996.83
2018-09-01T05:08:36.196Z,996.83
2018-09-01T05:09:36.120Z,996.85
2018-09-01T05:10:36.042Z,996.88
2018-09-01T05:11:35.963Z,996.89
2018-09-01T05:12:35.888Z,996.88
2018-09-01T05:13:35.811Z,996.88
2018-09-01T05:14:35.730Z,996.87
2018-09-01T05:15:35.652Z,996.87
2018-09-01T05:16:35.574Z,996.88
2018-09-01T05:17:35.500Z,996.84
2018-09-01T05:18:35.419Z,996.88
2018-09-01T05:19:35.341Z,996.89
2018-09-01T05:20:35.263Z,996.88
2018-09-01T05:21:35.186Z,996.90
2018-09-01T05:22:35.108Z,996.88
2018-09-01T05:23:35.030Z,996.91
2018-09-01T05:24:34.953Z,996.92
2018-09-01T05:25:34.875Z,996.92
2018-09-01T05:26:34.802Z,996.95
2018-09-01T05:27:34.719Z,996.94
2018-09-01T05:28:34.643Z,996.95
2018-09-01T05:29:34.565Z,996.93
2018-09-01T05:30:34.487Z,996.99
2018-09-01T05:31:34.409Z,996.95
2018-09-01T05:32:34.332Z,996.94
2018-09-01T05:33:34.254Z,996.97
2018-09-01T05:34:34.177Z,996.96
2018-09-01T05:35:34.102Z,996.94
2018-09-01T05:36:34.109Z,996.93
2018-09-01T05:37:33.947Z,996.95
2018-09-01T05:38:33.868Z,996.97
2018-09-01T05:39:33.788Z,996.97
2018-09-01T05:40:33.715Z,996.98
2018-09-01T05:41:33.634Z,996.97
2018-09-01T05:42:33.557Z,997.02
2018-09-01T05:43:33.523Z,997.05
2018-09-01T05:44:33.403Z,997.04
2018-09-01T05:45:33.325Z,997.03
2018-09-01T05:46:33.250Z,997.01
2018-09-01T05:47:33.172Z,997.07
2018-09-01T05:48:33.093Z,997.06
2018-09-01T05:49:33.019Z,997.07
2018-09-01T05:50:32.940Z,997.04
2018-09-01T05:51:32.862Z,997.02
2018-09-01T05:52:32.787Z,997.04
2018-09-01T05:53:32.711Z,997.05
2018-09-01T05:54:32.632Z,997.03
2018-09-01T05:55:32.554Z,997.04
2018-09-01T05:56:32.477Z,997.06
2018-09-01T05:57:32.400Z,997.05
2018-09-01T05:58:32.324Z,997.02
2018-09-01T05:59:32.246Z,997.06
2018-09-01T06:00:32.183Z,997.07
2018-09-01T06:01:32.095Z,997.05
2018-09-01T06:02:32.016Z,997.07
2018-09-01T06:03:31.939Z,997.06
2018-09-01T06:04:31.863Z,997.13
2018-09-01T06:05:31.787Z,997.12
2018-09-01T06:06:31.711Z,997.14
2018-09-01T06:07:31.632Z,997.11
2018-09-01T06:08:31.556Z,997.15
2018-09-01T06:09:31.480Z,997.13
2018-09-01T06:10:31.403Z,997.14
2018-09-01T06:11:31.326Z,997.17
2018-09-01T06:12:31.251Z,997.17
2018-09-01T06:13:31.175Z,997.15
2018-09-01T06:14:31.098Z,997.10
2018-09-01T06:15:31.021Z,997.09
2018-09-01T06:16:30.944Z,997.10
2018-09-01T06:17:30.892Z,997.14
2018-09-01T06:18:30.793Z,997.14
2018-09-01T06:19:30.718Z,997.19
2018-09-01T06:20:30.638Z,997.16
2018-09-01T06:21:30.564Z,997.15
2018-09-01T06:22:30.486Z,997.16
2018-09-01T06:23:30.410Z,997.15
2018-09-01T06:24:30.333Z,997.15
2018-09-01T06:25:30.256Z,997.21
2018-09-01T06:26:30.184Z,997.18
2018-09-01T06:27:30.105Z,997.15
2018-09-01T06:28:30.029Z,997.16
2018-09-01T06:29:29.957Z,997.17
2018-09-01T06:30:29.905Z,997.17
2018-09-01T06:31:29.801Z,997.18
2018-09-01T06:32:29.725Z,997.22
2018-09-01T06:33:29.649Z,997.24
2018-09-01T06:34:29.576Z,997.23
2018-09-01T06:35:29.498Z,997.23
2018-09-01T06:36:29.423Z,997.24
2018-09-01T06:37:29.392Z,997.24
2018-09-01T06:38:29.271Z,997.26
2018-09-01T06:39:29.195Z,997.25
2018-09-01T06:40:29.119Z,997.30
2018-09-01T06:41:29.044Z,997.30
2018-09-01T06:42:28.971Z,997.27
2018-09-01T06:43:28.894Z,997.29
2018-09-01T06:44:28.819Z,997.33
2018-09-01T06:45:28.741Z,997.34
2018-09-01T06:46:28.668Z,997.35
2018-09-01T06:47:28.594Z,997.36
2018-09-01T06:48:28.515Z,997.38
2018-09-01T06:49:28.442Z,997.39
2018-09-01T06:50:28.364Z,997.41
2018-09-01T06:51:28.293Z,997.42
2018-09-01T06:52:28.214Z,997.43
2018-09-01T06:53:28.139Z,997.43
2018-09-01T06:54:28.064Z,997.45
2018-09-01T06:55:27.990Z,997.48
2018-09-01T06:56:27.913Z,997.51
2018-09-01T06:57:27.839Z,997.49
2018-09-01T06:58:27.765Z,997.47
2018-09-01T06:59:27.689Z,997.50
2018-09-01T07:00:27.612Z,997.48
2018-09-01T07:01:27.538Z,997.49
2018-09-01T07:02:27.465Z,997.51
2018-09-01T07:03:27.390Z,997.52
2018-09-01T07:04:27.316Z,997.50
2018-09-01T07:05:27.240Z,997.55
2018-09-01T07:06:27.165Z,997.55
2018-09-01T07:07:27.088Z,997.58
2018-09-01T07:08:27.015Z,997.60
2018-09-01T07:09:26.941Z,997.64
2018-09-01T07:10:26.865Z,997.64
2018-09-01T07:11:26.790Z,997.61
2018-09-01T07:12:26.715Z,997.64
2018-09-01T07:13:26.642Z,997.62
2018-09-01T07:14:26.567Z,997.64
2018-09-01T07:15:26.491Z,997.62
2018-09-01T07:16:26.417Z,997.68
2018-09-01T07:17:26.342Z,997.72
2018-09-01T07:18:26.268Z,997.73
2018-09-01T07:19:26.192Z,997.73
2018-09-01T07:20:26.117Z,997.71
2018-09-01T07:21:26.044Z,997.74
2018-09-01T07:22:25.970Z,997.74
2018-09-01T07:23:25.895Z,997.70
2018-09-01T07:24:25.824Z,997.71
2018-09-01T07:25:25.744Z,997.76
2018-09-01T07:26:25.671Z,997.75
2018-09-01T07:27:25.602Z,997.80
2018-09-01T07:28:25.521Z,997.83
2018-09-01T07:29:25.447Z,997.82
2018-09-01T07:30:25.561Z,997.86
2018-09-01T07:31:25.845Z,997.87
2018-09-01T07:32:25.225Z,997.87
2018-09-01T07:33:25.151Z,997.84
2018-09-01T07:34:25.080Z,997.84
2018-09-01T07:35:25.001Z,997.82
2018-09-01T07:36:24.927Z,997.77
2018-09-01T07:37:24.853Z,997.75
2018-09-01T07:38:24.777Z,997.72
2018-09-01T07:39:24.703Z,997.73
2018-09-01T07:40:24.628Z,997.79
2018-09-01T07:41:24.557Z,997.78
2018-09-01T07:42:24.480Z,997.81
2018-09-01T07:43:24.405Z,997.84
2018-09-01T07:44:24.336Z,997.87
2018-09-01T07:45:24.256Z,997.86
2018-09-01T07:46:24.184Z,997.91
2018-09-01T07:47:24.110Z,997.90
2018-09-01T07:48:24.034Z,997.89
2018-09-01T07:49:23.959Z,997.91
2018-09-01T07:50:23.891Z,997.91
2018-09-01T07:51:23.811Z,997.90
2018-09-01T07:52:23.735Z,997.88
2018-09-01T07:53:23.662Z,997.90
2018-09-01T07:54:23.587Z,997.90
2018-09-01T07:55:23.512Z,997.95
2018-09-01T07:56:23.500Z,997.94
2018-09-01T07:57:23.363Z,997.95
2018-09-01T07:58:23.289Z,997.96
2018-09-01T07:59:23.216Z,997.96
2018-09-01T08:00:23.146Z,997.97
2018-09-01T08:01:23.068Z,998.00
2018-09-01T08:02:22.993Z,998.00
2018-09-01T08:03:22.919Z,997.99
2018-09-01T08:04:22.845Z,998.00
2018-09-01T08:05:22.770Z,998.02
2018-09-01T08:06:22.697Z,998.04
2018-09-01T08:07:22.663Z,998.01
2018-09-01T08:08:22.546Z,998.06
2018-09-01T08:09:22.475Z,998.02
2018-09-01T08:10:22.400Z,998.09
2018-09-01T08:11:22.326Z,998.05
2018-09-01T08:12:22.252Z,998.11
2018-09-01T08:13:22.178Z,998.10
2018-09-01T08:14:22.265Z,998.07
2018-09-01T08:15:22.034Z,998.09
2018-09-01T08:16:21.955Z,998.08
2018-09-01T08:17:21.886Z,998.10
2018-09-01T08:18:21.810Z,998.09
2018-09-01T08:19:21.735Z,998.09
2018-09-01T08:20:21.662Z,998.09
2018-09-01T08:21:21.587Z,998.10
2018-09-01T08:22:21.513Z,998.09
2018-09-01T08:23:21.440Z,998.10
2018-09-01T08:24:21.367Z,998.13
2018-09-01T08:25:21.293Z,998.15
2018-09-01T08:26:21.219Z,998.17
2018-09-01T08:27:21.145Z,998.15
2018-09-01T08:28:21.072Z,998.15
2018-09-01T08:29:20.998Z,998.13
2018-09-01T08:30:20.924Z,998.16
2018-09-01T08:31:20.851Z,998.11
2018-09-01T08:32:20.779Z,998.13
2018-09-01T08:33:20.705Z,998.11
2018-09-01T08:34:20.633Z,998.10
2018-09-01T08:35:20.557Z,998.12
2018-09-01T08:36:20.485Z,998.15
2018-09-01T08:37:20.410Z,998.12
2018-09-01T08:38:20.339Z,998.11
2018-09-01T08:39:20.263Z,998.17
2018-09-01T08:40:20.199Z,998.14
2018-09-01T08:41:20.117Z,998.20
2018-09-01T08:42:20.045Z,998.19
2018-09-01T08:43:19.971Z,998.22
2018-09-01T08:44:19.898Z,998.17
2018-09-01T08:45:19.856Z,998.23
2018-09-01T08:46:19.751Z,998.22
2018-09-01T08:47:19.678Z,998.21
2018-09-01T08:48:19.606Z,998.21
2018-09-01T08:49:19.534Z,998.22
2018-09-01T08:50:19.460Z,998.25
2018-09-01T08:51:19.388Z,998.30
2018-09-01T08:52:19.313Z,998.28
2018-09-01T08:53:19.241Z,998.32
2018-09-01T08:54:19.167Z,998.32
2018-09-01T08:55:19.096Z,998.28
2018-09-01T08:56:19.022Z,998.27
2018-09-01T08:57:18.948Z,998.25
2018-09-01T08:58:18.876Z,998.25
2018-09-01T08:59:18.803Z,998.23
2018-09-01T09:00:18.730Z,998.24
2018-09-01T09:01:18.658Z,998.31
2018-09-01T09:02:18.585Z,998.34
2018-09-01T09:03:18.510Z,998.32
2018-09-01T09:04:18.437Z,998.35
2018-09-01T09:05:18.366Z,998.33
2018-09-01T09:06:18.292Z,998.33
2018-09-01T09:07:18.221Z,998.29
2018-09-01T09:08:18.149Z,998.27
2018-09-01T09:09:18.075Z,998.29
2018-09-01T09:10:18.003Z,998.27
2018-09-01T09:11:17.929Z,998.19
2018-09-01T09:12:17.857Z,998.24
2018-09-01T09:13:17.788Z,998.25
2018-09-01T09:14:17.713Z,998.25
2018-09-01T09:15:17.641Z,998.27
2018-09-01T09:16:17.566Z,998.26
2018-09-01T09:17:17.499Z,998.17
2018-09-01T09:18:17.422Z,998.21
2018-09-01T09:19:17.349Z,998.16
2018-09-01T09:20:17.276Z,998.19
2018-09-01T09:21:17.206Z,998.15
2018-09-01T09:22:17.132Z,998.13
2018-09-01T09:23:17.058Z,998.17
2018-09-01T09:24:16.985Z,998.13
2018-09-01T09:25:16.914Z,998.17
2018-09-01T09:26:16.843Z,998.15
2018-09-01T09:27:16.769Z,998.22
2018-09-01T09:28:16.697Z,998.21
2018-09-01T09:29:16.624Z,998.23
2018-09-01T09:30:16.553Z,998.20
2018-09-01T09:31:16.480Z,998.22
2018-09-01T09:32:16.407Z,998.22
2018-09-01T09:33:16.334Z,998.22
2018-09-01T09:34:16.263Z,998.23
2018-09-01T09:35:16.191Z,998.27
2018-09-01T09:36:16.119Z,998.29
2018-09-01T09:37:16.048Z,998.28
2018-09-01T09:38:15.976Z,998.27
2018-09-01T09:39:15.902Z,998.23
2018-09-01T09:40:15.830Z,998.28
2018-09-01T09:41:15.759Z,998.27
2018-09-01T09:42:15.687Z,998.27
2018-09-01T09:43:15.615Z,998.27
2018-09-01T09:44:15.545Z,998.24
2018-09-01T09:45:15.470Z,998.20
2018-09-01T09:46:15.399Z,998.27
2018-09-01T09:47:15.329Z,998.23
2018-09-01T09:48:15.255Z,998.27
2018-09-01T09:49:15.183Z,998.27
2018-09-01T09:50:15.112Z,998.22
2018-09-01T09:51:15.242Z,998.20
2018-09-01T09:52:14.969Z,998.25
2018-09-01T09:53:14.895Z,998.23
2018-09-01T09:54:14.824Z,998.24
2018-09-01T09:55:14.751Z,998.19
2018-09-01T09:56:14.679Z,998.18
2018-09-01T09:57:14.609Z,998.24
2018-09-01T09:58:14.566Z,998.19
2018-09-01T09:59:14.464Z,998.16
2018-09-01T10:00:14.397Z,998.24
2018-09-01T10:01:14.321Z,998.21
2018-09-01T10:02:14.252Z,998.15
2018-09-01T10:03:14.177Z,998.17
2018-09-01T10:04:14.104Z,998.14
2018-09-01T10:05:14.038Z,998.17
2018-09-01T10:06:13.963Z,998.15
2018-09-01T10:07:13.888Z,998.13
2018-09-01T10:08:13.817Z,998.23
2018-09-01T10:09:13.746Z,998.22
2018-09-01T10:10:13.674Z,998.24
2018-09-01T10:11:13.603Z,998.23
2018-09-01T10:12:13.531Z,998.22
2018-09-01T10:13:13.486Z,998.23
2018-09-01T10:14:13.389Z,998.22
2018-09-01T10:15:13.341Z,998.19
2018-09-01T10:16:13.242Z,998.21
2018-09-01T10:17:13.175Z,998.14
2018-09-01T10:18:13.100Z,998.15
2018-09-01T10:19:13.029Z,998.13
2018-09-01T10:20:13.009Z,998.13
2018-09-01T10:21:12.885Z,998.10
2018-09-01T10:22:12.814Z,998.02
2018-09-01T10:23:12.743Z,998.05
2018-09-01T10:24:12.671Z,998.14
2018-09-01T10:25:12.600Z,998.11
2018-09-01T10:26:12.530Z,998.13
2018-09-01T10:27:12.630Z,998.14
2018-09-01T10:28:12.387Z,998.08
2018-09-01T10:29:12.316Z,998.09
2018-09-01T10:30:12.246Z,998.11
2018-09-01T10:31:12.173Z,998.08
2018-09-01T10:32:12.102Z,998.08
2018-09-01T10:33:12.056Z,998.04
2018-09-01T10:34:11.962Z,998.02
2018-09-01T10:35:11.893Z,998.00
2018-09-01T10:36:11.821Z,997.98
2018-09-01T10:37:11.748Z,997.95
2018-09-01T10:38:11.676Z,997.98
2018-09-01T10:39:11.605Z,997.97
2018-09-01T10:40:11.534Z,997.94
2018-09-01T10:41:11.464Z,997.97
2018-09-01T10:42:11.404Z,997.96
2018-09-01T10:43:11.322Z,997.94
2018-09-01T10:44:11.250Z,997.96
2018-09-01T10:45:11.180Z,997.96
2018-09-01T10:46:11.110Z,997.94
2018-09-01T10:47:11.039Z,997.93
2018-09-01T10:48:10.972Z,997.93
2018-09-01T10:49:10.897Z,997.96
2018-09-01T10:50:10.827Z,997.91
2018-09-01T10:51:10.756Z,997.96
2018-09-01T10:52:10.687Z,997.89
2018-09-01T10:53:10.617Z,997.89
2018-09-01T10:54:10.543Z,997.90
2018-09-01T10:55:10.474Z,997.90
2018-09-01T10:56:10.402Z,997.89
2018-09-01T10:57:10.332Z,997.91
2018-09-01T10:58:10.261Z,997.93
2018-09-01T10:59:10.392Z,997.89
2018-09-01T11:00:10.121Z,997.95
2018-09-01T11:01:10.049Z,997.90
2018-09-01T11:02:09.978Z,997.83
2018-09-01T11:03:09.910Z,997.82
2018-09-01T11:04:09.837Z,997.82
2018-09-01T11:05:09.826Z,997.80
2018-09-01T11:06:09.695Z,997.82
2018-09-01T11:07:09.624Z,997.81
2018-09-01T11:08:09.554Z,997.83
2018-09-01T11:09:09.484Z,997.77
2018-09-01T11:10:09.413Z,997.82
2018-09-01T11:11:09.343Z,997.80
2018-09-01T11:12:09.272Z,997.80
2018-09-01T11:13:09.202Z,997.76
2018-09-01T11:14:09.131Z,997.70
2018-09-01T11:15:09.059Z,997.67
2018-09-01T11:16:08.990Z,997.67
2018-09-01T11:17:08.920Z,997.63
2018-09-01T11:18:08.850Z,997.70
2018-09-01T11:19:08.782Z,997.74
2018-09-01T11:20:08.720Z,997.72
2018-09-01T11:21:08.639Z,997.66
2018-09-01T11:22:08.570Z,997.73
2018-09-01T11:23:08.498Z,997.72
2018-09-01T11:24:08.431Z,997.74
2018-09-01T11:25:08.360Z,997.77
2018-09-01T11:26:08.292Z,997.71
2018-09-01T11:27:08.220Z,997.71
2018-09-01T11:28:08.261Z,997.72
2018-09-01T11:29:08.085Z,997.63
2018-09-01T11:30:08.012Z,997.61
2018-09-01T11:31:07.951Z,997.64
2018-09-01T11:32:07.872Z,997.67
2018-09-01T11:33:07.802Z,997.64
2018-09-01T11:34:07.743Z,997.77
2018-09-01T11:35:07.661Z,997.80
2018-09-01T11:36:07.655Z,997.82
2018-09-01T11:37:07.523Z,997.80
2018-09-01T11:38:07.454Z,997.76
2018-09-01T11:39:07.384Z,997.69
2018-09-01T11:40:07.322Z,997.78
2018-09-01T11:41:07.246Z,997.87
2018-09-01T11:42:07.182Z,997.59
2018-09-01T11:43:07.274Z,997.48
2018-09-01T11:44:07.040Z,997.54
2018-09-01T11:45:06.972Z,997.83
2018-09-01T11:46:06.904Z,997.87
2018-09-01T11:47:06.834Z,997.81
2018-09-01T11:48:06.778Z,997.81
2018-09-01T11:49:06.701Z,997.86
2018-09-01T11:50:06.633Z,997.52
2018-09-01T11:51:06.565Z,997.51
2018-09-01T11:52:06.504Z,997.48
2018-09-01T11:53:06.489Z,997.44
2018-09-01T11:54:06.383Z,997.56
2018-09-01T11:55:06.301Z,997.90
2018-09-01T11:56:06.234Z,997.95
2018-09-01T11:57:06.167Z,997.98
2018-09-01T11:58:06.101Z,998.01
2018-09-01T11:59:06.035Z,997.71
2018-09-01T12:00:05.973Z,997.57
2018-09-01T12:01:05.910Z,997.62
2018-09-01T12:02:05.855Z,997.55
2018-09-01T12:03:05.777Z,997.62
2018-09-01T12:04:05.712Z,997.61
2018-09-01T12:05:05.647Z,997.85
2018-09-01T12:06:05.584Z,997.86
2018-09-01T12:07:05.517Z,997.80
2018-09-01T12:08:05.453Z,997.53
2018-09-01T12:09:05.510Z,997.50
2018-09-01T12:10:05.324Z,998.05
2018-09-01T12:11:05.258Z,998.12
2018-09-01T12:12:05.194Z,998.05
2018-09-01T12:13:05.133Z,997.94
2018-09-01T12:14:05.066Z,998.16
2018-09-01T12:15:05.007Z,998.24
2018-09-01T12:16:04.936Z,998.26
2018-09-01T12:17:04.873Z,998.26
2018-09-01T12:18:04.811Z,998.22
2018-09-01T12:19:04.747Z,998.26
2018-09-01T12:20:04.684Z,998.34
2018-09-01T12:21:04.625Z,998.35
2018-09-01T12:22:04.586Z,998.41
2018-09-01T12:23:04.498Z,998.36
2018-09-01T12:24:04.437Z,998.42
2018-09-01T12:25:04.375Z,998.43
2018-09-01T12:26:04.315Z,998.43
2018-09-01T12:27:04.253Z,998.40
2018-09-01T12:28:04.207Z,998.33